Gaz Venture — 3FLQ4 — position and weather

sailwx.info

Track history (hours):
 
Tides and Currents Weather Stations Pressure Air Temp Water Temp Dewpoint Dewpoint Depression Visibility Wind Speed Wind Dir Waves Ship Positions

Gaz Venture

Last reported at 2017-Aug-19 05:30 UTC. Time now 2017-Aug-19 05:30 UTC.
Position N 35°32' E 015°05'.

Length 120 m; draft 7.9 m.

Type: Ship (hazmat cat D). MMSI: 356141000.

Date/timePositionNaut miles runAvg speedWind from/ knotsBaromVisibWave heightAir tempDewpointWater temp
2017-Aug-19 05:30N 35°32' E 015°05'1 1.1
2017-Aug-19 05:00N 35°32' E 015°05'1 1.1
2017-Aug-19 04:30N 35°33' E 015°05'1 1.2
2017-Aug-19 04:00N 35°33' E 015°05'1 1.2
2017-Aug-19 03:21N 35°34' E 015°05'0 1.1
2017-Aug-19 03:00N 35°34' E 015°05'1 1.1
2017-Aug-19 02:30N 35°35' E 015°04'1 1.2
2017-Aug-19 02:00N 35°35' E 015°04'1 1.1
2017-Aug-19 01:30N 35°36' E 015°04'2 3.5
2017-Aug-19 01:00N 35°38' E 015°04'611.9
2017-Aug-19 00:30N 35°43' E 015°00'714.0
2017-Aug-19 00:00N 35°47' E 014°53'714.1
2017-Aug-18 23:31N 35°51' E 014°46'713.3
2017-Aug-18 23:00N 35°56' E 014°41'5 9.8
2017-Aug-18 22:30N 35°60' E 014°37'0 0.3
2017-Aug-18 22:00N 36°00' E 014°37'0 0.2
2017-Aug-18 21:30N 36°00' E 014°37'0 0.3
2017-Aug-18 21:00N 35°60' E 014°37'0 0.4
2017-Aug-18 20:30N 35°60' E 014°37'0 0.3
2017-Aug-18 20:00N 35°60' E 014°37'0 0.2
2017-Aug-18 19:31N 35°60' E 014°37'0 0.3
2017-Aug-18 19:00N 35°60' E 014°36'0 0.3
2017-Aug-18 18:31N 35°59' E 014°36'0 0.6
2017-Aug-18 18:00N 35°59' E 014°36'0 0.7
2017-Aug-18 17:31N 35°59' E 014°36'0 0.4
2017-Aug-18 17:00N 35°59' E 014°36'0 0.3
2017-Aug-18 16:30N 35°59' E 014°36'0 0.5
2017-Aug-18 16:01N 35°59' E 014°36'0 0.5
2017-Aug-18 15:30N 35°58' E 014°36'0 0.6
2017-Aug-18 14:59N 35°58' E 014°36'2 1.7
2017-Aug-18 14:00N 35°57' E 014°38'510.8
2017-Aug-18 13:30N 35°53' E 014°41'814.4
2017-Aug-18 12:59N 35°45' E 014°40'714.4
2017-Aug-18 12:30N 35°39' E 014°37'714.1
2017-Aug-18 11:59N 35°32' E 014°33'714.1
2017-Aug-18 11:30N 35°27' E 014°28'714.1
2017-Aug-18 11:00N 35°21' E 014°23'714.0
2017-Aug-18 10:30N 35°15' E 014°18'3714.2
2017-Aug-18 07:56N 34°46' E 013°52'614.3
2017-Aug-18 07:30N 34°41' E 013°48'714.2
2017-Aug-18 07:00N 34°35' E 013°43'714.1
2017-Aug-18 06:30N 34°29' E 013°38'714.1
2017-Aug-18 06:00N 34°24' E 013°32'714.3
2017-Aug-18 05:30N 34°18' E 013°28'714.6
2017-Aug-18 05:00N 34°12' E 013°22'914.6
2017-Aug-18 04:24N 34°05' E 013°16'614.6
2017-Aug-18 04:00N 34°00' E 013°12'714.6
2017-Aug-18 03:30N 33°54' E 013°07'714.4
2017-Aug-18 03:00N 33°49' E 013°01'2114.4
2017-Aug-18 01:32N 33°31' E 012°47'114.6
2017-Aug-18 01:30N 33°31' E 012°46'714.5
2017-Aug-18 00:59N 33°25' E 012°41'714.5
2017-Aug-18 00:29N 33°19' E 012°36'3114.0
2017-Aug-17 22:18N 32°54' E 012°15'1 4.0
2017-Aug-17 22:00N 32°53' E 012°15'3 0.2
2017-Aug-17 03:02N 32°56' E 012°15'0 0.0
2017-Aug-17 02:53N 32°56' E 012°15'0 0.0
2017-Aug-17 02:29N 32°56' E 012°15'3 3.0
2017-Aug-17 01:32N 32°57' E 012°18'412.0
2017-Aug-17 01:15N 32°58' E 012°22'314.4
2017-Aug-17 01:00N 32°58' E 012°26'815.0
2017-Aug-17 00:29N 32°59' E 012°35'814.9
2017-Aug-16 23:58N 33°01' E 012°44'714.9
2017-Aug-16 23:30N 33°03' E 012°52'915.0
2017-Aug-16 22:53N 33°06' E 013°03'615.0
2017-Aug-16 22:28N 33°07' E 013°10'715.1
2017-Aug-16 22:00N 33°09' E 013°18'3614.9
2017-Aug-16 19:37N 33°02' E 014°00'215.2
2017-Aug-16 19:30N 33°02' E 014°02'715.2
2017-Aug-16 19:00N 32°60' E 014°11'815.2
2017-Aug-16 18:30N 32°57' E 014°19'815.3
2017-Aug-16 18:01N 32°54' E 014°27'915.3
2017-Aug-16 17:26N 32°50' E 014°37'615.4
2017-Aug-16 17:00N 32°48' E 014°44'815.2
2017-Aug-16 16:30N 32°45' E 014°52'1315.2
2017-Aug-16 15:38N 32°40' E 015°07'215.1
2017-Aug-16 15:30N 32°39' E 015°09'815.3
2017-Aug-16 14:59N 32°36' E 015°18'715.2
2017-Aug-16 14:30N 32°33' E 015°26'  
Track history (hours):
 
Tides and Currents Weather Stations Pressure Air Temp Water Temp Dewpoint Dewpoint Depression Visibility Wind Speed Wind Dir Waves Ship Positions

Gaz Venture

Last reported at 2017-Aug-19 05:30 UTC. Time now 2017-Aug-19 05:30 UTC.
Position N 35°32' E 015°05'.

Length 120 m; draft 7.9 m.

Type: Ship (hazmat cat D). MMSI: 356141000.

Date/timePositionNaut miles runAvg speedWind from/ knotsBaromVisibWave heightAir tempDewpointWater temp
2017-Aug-19 05:30N 35°32' E 015°05'1 1.1
2017-Aug-19 05:00N 35°32' E 015°05'1 1.1
2017-Aug-19 04:30N 35°33' E 015°05'1 1.2
2017-Aug-19 04:00N 35°33' E 015°05'1 1.2
2017-Aug-19 03:21N 35°34' E 015°05'0 1.1
2017-Aug-19 03:00N 35°34' E 015°05'1 1.1
2017-Aug-19 02:30N 35°35' E 015°04'1 1.2
2017-Aug-19 02:00N 35°35' E 015°04'1 1.1
2017-Aug-19 01:30N 35°36' E 015°04'2 3.5
2017-Aug-19 01:00N 35°38' E 015°04'611.9
2017-Aug-19 00:30N 35°43' E 015°00'714.0
2017-Aug-19 00:00N 35°47' E 014°53'714.1
2017-Aug-18 23:31N 35°51' E 014°46'713.3
2017-Aug-18 23:00N 35°56' E 014°41'5 9.8
2017-Aug-18 22:30N 35°60' E 014°37'0 0.3
2017-Aug-18 22:00N 36°00' E 014°37'0 0.2
2017-Aug-18 21:30N 36°00' E 014°37'0 0.3
2017-Aug-18 21:00N 35°60' E 014°37'0 0.4
2017-Aug-18 20:30N 35°60' E 014°37'0 0.3
2017-Aug-18 20:00N 35°60' E 014°37'0 0.2
2017-Aug-18 19:31N 35°60' E 014°37'0 0.3
2017-Aug-18 19:00N 35°60' E 014°36'0 0.3
2017-Aug-18 18:31N 35°59' E 014°36'0 0.6
2017-Aug-18 18:00N 35°59' E 014°36'0 0.7
2017-Aug-18 17:31N 35°59' E 014°36'0 0.4
2017-Aug-18 17:00N 35°59' E 014°36'0 0.3
2017-Aug-18 16:30N 35°59' E 014°36'0 0.5
2017-Aug-18 16:01N 35°59' E 014°36'0 0.5
2017-Aug-18 15:30N 35°58' E 014°36'0 0.6
2017-Aug-18 14:59N 35°58' E 014°36'2 1.7
2017-Aug-18 14:00N 35°57' E 014°38'510.8
2017-Aug-18 13:30N 35°53' E 014°41'814.4
2017-Aug-18 12:59N 35°45' E 014°40'714.4
2017-Aug-18 12:30N 35°39' E 014°37'714.1
2017-Aug-18 11:59N 35°32' E 014°33'714.1
2017-Aug-18 11:30N 35°27' E 014°28'714.1
2017-Aug-18 11:00N 35°21' E 014°23'714.0
2017-Aug-18 10:30N 35°15' E 014°18'3714.2
2017-Aug-18 07:56N 34°46' E 013°52'614.3
2017-Aug-18 07:30N 34°41' E 013°48'714.2
2017-Aug-18 07:00N 34°35' E 013°43'714.1
2017-Aug-18 06:30N 34°29' E 013°38'714.1
2017-Aug-18 06:00N 34°24' E 013°32'714.3
2017-Aug-18 05:30N 34°18' E 013°28'714.6
2017-Aug-18 05:00N 34°12' E 013°22'914.6
2017-Aug-18 04:24N 34°05' E 013°16'614.6
2017-Aug-18 04:00N 34°00' E 013°12'714.6
2017-Aug-18 03:30N 33°54' E 013°07'714.4
2017-Aug-18 03:00N 33°49' E 013°01'2114.4
2017-Aug-18 01:32N 33°31' E 012°47'114.6
2017-Aug-18 01:30N 33°31' E 012°46'714.5
2017-Aug-18 00:59N 33°25' E 012°41'714.5
2017-Aug-18 00:29N 33°19' E 012°36'3114.0
2017-Aug-17 22:18N 32°54' E 012°15'1 4.0
2017-Aug-17 22:00N 32°53' E 012°15'3 0.2
2017-Aug-17 03:02N 32°56' E 012°15'0 0.0
2017-Aug-17 02:53N 32°56' E 012°15'0 0.0
2017-Aug-17 02:29N 32°56' E 012°15'3 3.0
2017-Aug-17 01:32N 32°57' E 012°18'412.0
2017-Aug-17 01:15N 32°58' E 012°22'314.4
2017-Aug-17 01:00N 32°58' E 012°26'815.0
2017-Aug-17 00:29N 32°59' E 012°35'814.9
2017-Aug-16 23:58N 33°01' E 012°44'714.9
2017-Aug-16 23:30N 33°03' E 012°52'915.0
2017-Aug-16 22:53N 33°06' E 013°03'615.0
2017-Aug-16 22:28N 33°07' E 013°10'715.1
2017-Aug-16 22:00N 33°09' E 013°18'3614.9
2017-Aug-16 19:37N 33°02' E 014°00'215.2
2017-Aug-16 19:30N 33°02' E 014°02'715.2
2017-Aug-16 19:00N 32°60' E 014°11'815.2
2017-Aug-16 18:30N 32°57' E 014°19'815.3
2017-Aug-16 18:01N 32°54' E 014°27'915.3
2017-Aug-16 17:26N 32°50' E 014°37'615.4
2017-Aug-16 17:00N 32°48' E 014°44'815.2
2017-Aug-16 16:30N 32°45' E 014°52'1315.2
2017-Aug-16 15:38N 32°40' E 015°07'215.1
2017-Aug-16 15:30N 32°39' E 015°09'815.3
2017-Aug-16 14:59N 32°36' E 015°18'715.2
2017-Aug-16 14:30N 32°33' E 015°26'  

Dump ship's entire track history